sensor_id;sensor_type;location;lat;lon;timestamp;P1;durP1;ratioP1;P2;durP2;ratioP2
47615;SDS011;69146;52.266;7.000;2023-04-24T00:00:13;3.80;;;3.50;;
47615;SDS011;69146;52.266;7.000;2023-04-24T00:03:00;7.32;;;3.13;;
47615;SDS011;69146;52.266;7.000;2023-04-24T00:05:45;3.47;;;3.17;;
47615;SDS011;69146;52.266;7.000;2023-04-24T00:08:30;4.25;;;3.60;;
47615;SDS011;69146;52.266;7.000;2023-04-24T00:11:16;3.85;;;3.10;;
47615;SDS011;69146;52.266;7.000;2023-04-24T00:14:01;3.55;;;3.17;;
47615;SDS011;69146;52.266;7.000;2023-04-24T00:16:46;4.18;;;3.05;;
47615;SDS011;69146;52.266;7.000;2023-04-24T00:19:32;3.80;;;3.40;;
47615;SDS011;69146;52.266;7.000;2023-04-24T00:22:17;3.40;;;2.80;;
47615;SDS011;69146;52.266;7.000;2023-04-24T00:25:02;3.30;;;3.00;;
47615;SDS011;69146;52.266;7.000;2023-04-24T00:30:32;4.50;;;3.38;;
47615;SDS011;69146;52.266;7.000;2023-04-24T00:33:17;5.13;;;3.43;;
47615;SDS011;69146;52.266;7.000;2023-04-24T00:36:03;4.65;;;3.65;;
47615;SDS011;69146;52.266;7.000;2023-04-24T00:38:48;4.60;;;4.20;;
47615;SDS011;69146;52.266;7.000;2023-04-24T00:41:33;5.10;;;4.60;;
47615;SDS011;69146;52.266;7.000;2023-04-24T00:44:18;5.72;;;5.13;;
47615;SDS011;69146;52.266;7.000;2023-04-24T00:47:03;6.10;;;5.50;;
47615;SDS011;69146;52.266;7.000;2023-04-24T00:49:48;6.05;;;5.45;;
47615;SDS011;69146;52.266;7.000;2023-04-24T00:52:34;6.07;;;5.47;;
47615;SDS011;69146;52.266;7.000;2023-04-24T00:55:20;6.55;;;5.68;;
47615;SDS011;69146;52.266;7.000;2023-04-24T00:58:05;6.97;;;5.97;;
47615;SDS011;69146;52.266;7.000;2023-04-24T01:00:50;7.75;;;6.53;;
47615;SDS011;69146;52.266;7.000;2023-04-24T01:03:39;7.60;;;6.80;;
47615;SDS011;69146;52.266;7.000;2023-04-24T01:06:26;8.90;;;7.05;;
47615;SDS011;69146;52.266;7.000;2023-04-24T01:09:13;8.60;;;7.70;;
47615;SDS011;69146;52.266;7.000;2023-04-24T01:12:02;8.60;;;7.68;;
47615;SDS011;69146;52.266;7.000;2023-04-24T01:14:47;9.52;;;8.27;;
47615;SDS011;69146;52.266;7.000;2023-04-24T01:17:32;10.07;;;8.52;;
47615;SDS011;69146;52.266;7.000;2023-04-24T01:20:17;9.82;;;8.68;;
47615;SDS011;69146;52.266;7.000;2023-04-24T01:23:04;9.80;;;8.27;;
47615;SDS011;69146;52.266;7.000;2023-04-24T01:25:50;9.45;;;8.52;;
47615;SDS011;69146;52.266;7.000;2023-04-24T01:28:35;10.55;;;8.52;;
47615;SDS011;69146;52.266;7.000;2023-04-24T01:31:21;9.57;;;8.07;;
47615;SDS011;69146;52.266;7.000;2023-04-24T01:34:08;8.85;;;7.85;;
47615;SDS011;69146;52.266;7.000;2023-04-24T01:36:53;8.45;;;7.65;;
47615;SDS011;69146;52.266;7.000;2023-04-24T01:39:39;7.07;;;5.95;;
47615;SDS011;69146;52.266;7.000;2023-04-24T01:42:25;6.82;;;6.10;;
47615;SDS011;69146;52.266;7.000;2023-04-24T01:45:11;7.45;;;6.20;;
47615;SDS011;69146;52.266;7.000;2023-04-24T01:47:59;6.95;;;5.80;;
47615;SDS011;69146;52.266;7.000;2023-04-24T01:50:44;5.85;;;5.25;;
47615;SDS011;69146;52.266;7.000;2023-04-24T01:53:32;5.97;;;5.38;;
47615;SDS011;69146;52.266;7.000;2023-04-24T01:56:18;7.40;;;5.32;;
47615;SDS011;69146;52.266;7.000;2023-04-24T01:59:04;6.68;;;5.97;;
47615;SDS011;69146;52.266;7.000;2023-04-24T02:01:50;6.30;;;5.03;;
47615;SDS011;69146;52.266;7.000;2023-04-24T02:04:35;5.53;;;4.80;;
47615;SDS011;69146;52.266;7.000;2023-04-24T02:07:23;7.32;;;5.20;;
47615;SDS011;69146;52.266;7.000;2023-04-24T02:10:09;7.05;;;6.10;;
47615;SDS011;69146;52.266;7.000;2023-04-24T02:12:56;6.20;;;5.47;;
47615;SDS011;69146;52.266;7.000;2023-04-24T02:15:43;6.88;;;5.45;;
47615;SDS011;69146;52.266;7.000;2023-04-24T02:18:28;7.10;;;5.72;;
47615;SDS011;69146;52.266;7.000;2023-04-24T02:21:16;7.63;;;6.75;;
47615;SDS011;69146;52.266;7.000;2023-04-24T02:24:01;8.55;;;7.28;;
47615;SDS011;69146;52.266;7.000;2023-04-24T02:26:46;8.80;;;7.60;;
47615;SDS011;69146;52.266;7.000;2023-04-24T02:29:33;9.90;;;7.85;;
47615;SDS011;69146;52.266;7.000;2023-04-24T02:32:18;10.23;;;8.52;;
47615;SDS011;69146;52.266;7.000;2023-04-24T02:35:03;11.20;;;9.15;;
47615;SDS011;69146;52.266;7.000;2023-04-24T02:37:48;10.68;;;9.25;;
47615;SDS011;69146;52.266;7.000;2023-04-24T02:40:33;10.85;;;9.00;;
47615;SDS011;69146;52.266;7.000;2023-04-24T02:43:18;11.25;;;9.82;;
47615;SDS011;69146;52.266;7.000;2023-04-24T02:46:04;12.52;;;10.13;;
47615;SDS011;69146;52.266;7.000;2023-04-24T02:48:49;11.40;;;10.05;;
47615;SDS011;69146;52.266;7.000;2023-04-24T02:51:34;13.48;;;10.27;;
47615;SDS011;69146;52.266;7.000;2023-04-24T02:54:24;13.05;;;10.73;;
47615;SDS011;69146;52.266;7.000;2023-04-24T02:57:09;13.18;;;10.50;;
47615;SDS011;69146;52.266;7.000;2023-04-24T02:59:54;12.73;;;10.18;;
47615;SDS011;69146;52.266;7.000;2023-04-24T03:02:40;15.07;;;10.38;;
47615;SDS011;69146;52.266;7.000;2023-04-24T03:05:26;13.88;;;10.10;;
47615;SDS011;69146;52.266;7.000;2023-04-24T03:08:11;14.18;;;10.07;;
47615;SDS011;69146;52.266;7.000;2023-04-24T03:10:56;12.82;;;10.10;;
47615;SDS011;69146;52.266;7.000;2023-04-24T03:13:41;13.73;;;10.40;;
47615;SDS011;69146;52.266;7.000;2023-04-24T03:16:26;14.45;;;11.50;;
47615;SDS011;69146;52.266;7.000;2023-04-24T03:19:12;16.38;;;11.38;;
47615;SDS011;69146;52.266;7.000;2023-04-24T03:21:57;15.48;;;11.25;;
47615;SDS011;69146;52.266;7.000;2023-04-24T03:24:42;15.25;;;11.90;;
47615;SDS011;69146;52.266;7.000;2023-04-24T03:27:27;16.90;;;12.35;;
47615;SDS011;69146;52.266;7.000;2023-04-24T03:30:12;17.60;;;12.43;;
47615;SDS011;69146;52.266;7.000;2023-04-24T03:32:57;16.35;;;12.40;;
47615;SDS011;69146;52.266;7.000;2023-04-24T03:35:43;15.70;;;12.00;;
47615;SDS011;69146;52.266;7.000;2023-04-24T03:38:31;15.73;;;11.50;;
47615;SDS011;69146;52.266;7.000;2023-04-24T03:41:19;18.15;;;11.43;;
47615;SDS011;69146;52.266;7.000;2023-04-24T03:44:08;15.38;;;11.40;;
47615;SDS011;69146;52.266;7.000;2023-04-24T03:46:53;15.10;;;11.13;;
47615;SDS011;69146;52.266;7.000;2023-04-24T03:49:38;13.30;;;11.43;;
47615;SDS011;69146;52.266;7.000;2023-04-24T03:52:25;18.10;;;11.38;;
47615;SDS011;69146;52.266;7.000;2023-04-24T03:55:10;16.40;;;11.98;;
47615;SDS011;69146;52.266;7.000;2023-04-24T03:57:56;15.73;;;12.55;;
47615;SDS011;69146;52.266;7.000;2023-04-24T04:00:41;16.35;;;12.20;;
47615;SDS011;69146;52.266;7.000;2023-04-24T04:03:28;18.52;;;13.27;;
47615;SDS011;69146;52.266;7.000;2023-04-24T04:06:13;16.35;;;12.95;;
47615;SDS011;69146;52.266;7.000;2023-04-24T04:09:00;16.95;;;13.32;;
47615;SDS011;69146;52.266;7.000;2023-04-24T04:11:45;18.60;;;13.30;;
47615;SDS011;69146;52.266;7.000;2023-04-24T04:14:32;20.95;;;13.82;;
47615;SDS011;69146;52.266;7.000;2023-04-24T04:17:16;18.30;;;14.48;;
47615;SDS011;69146;52.266;7.000;2023-04-24T04:20:02;19.60;;;15.48;;
47615;SDS011;69146;52.266;7.000;2023-04-24T04:22:51;20.35;;;15.40;;
47615;SDS011;69146;52.266;7.000;2023-04-24T04:25:37;20.13;;;15.55;;
47615;SDS011;69146;52.266;7.000;2023-04-24T04:28:22;18.58;;;15.07;;
47615;SDS011;69146;52.266;7.000;2023-04-24T04:31:08;21.15;;;15.25;;
47615;SDS011;69146;52.266;7.000;2023-04-24T04:33:55;18.92;;;14.75;;
47615;SDS011;69146;52.266;7.000;2023-04-24T04:36:40;18.98;;;15.68;;
47615;SDS011;69146;52.266;7.000;2023-04-24T04:39:27;22.13;;;15.55;;
47615;SDS011;69146;52.266;7.000;2023-04-24T04:42:15;18.40;;;15.90;;
47615;SDS011;69146;52.266;7.000;2023-04-24T04:45:00;20.40;;;16.42;;
47615;SDS011;69146;52.266;7.000;2023-04-24T04:47:46;21.25;;;16.77;;
47615;SDS011;69146;52.266;7.000;2023-04-24T04:50:31;21.85;;;16.92;;
47615;SDS011;69146;52.266;7.000;2023-04-24T04:53:16;21.05;;;17.15;;
47615;SDS011;69146;52.266;7.000;2023-04-24T04:56:01;23.65;;;17.40;;
47615;SDS011;69146;52.266;7.000;2023-04-24T04:58:48;19.77;;;16.10;;
47615;SDS011;69146;52.266;7.000;2023-04-24T05:01:39;21.08;;;16.85;;
47615;SDS011;69146;52.266;7.000;2023-04-24T05:04:24;23.00;;;17.23;;
47615;SDS011;69146;52.266;7.000;2023-04-24T05:07:10;23.38;;;17.27;;
47615;SDS011;69146;52.266;7.000;2023-04-24T05:09:55;22.08;;;17.08;;
47615;SDS011;69146;52.266;7.000;2023-04-24T05:12:40;21.65;;;16.58;;
47615;SDS011;69146;52.266;7.000;2023-04-24T05:15:26;21.75;;;17.85;;
47615;SDS011;69146;52.266;7.000;2023-04-24T05:18:11;20.83;;;17.23;;
47615;SDS011;69146;52.266;7.000;2023-04-24T05:20:56;22.48;;;17.35;;
47615;SDS011;69146;52.266;7.000;2023-04-24T05:23:41;21.67;;;16.67;;
47615;SDS011;69146;52.266;7.000;2023-04-24T05:26:27;20.95;;;17.42;;
47615;SDS011;69146;52.266;7.000;2023-04-24T05:29:12;24.75;;;17.75;;
47615;SDS011;69146;52.266;7.000;2023-04-24T05:31:59;22.80;;;17.15;;
47615;SDS011;69146;52.266;7.000;2023-04-24T05:34:46;26.02;;;17.55;;
47615;SDS011;69146;52.266;7.000;2023-04-24T05:37:31;22.52;;;17.27;;
47615;SDS011;69146;52.266;7.000;2023-04-24T05:40:23;22.20;;;17.38;;
47615;SDS011;69146;52.266;7.000;2023-04-24T05:43:08;24.67;;;17.98;;
47615;SDS011;69146;52.266;7.000;2023-04-24T05:45:53;20.55;;;16.52;;
47615;SDS011;69146;52.266;7.000;2023-04-24T05:48:39;24.40;;;18.38;;
47615;SDS011;69146;52.266;7.000;2023-04-24T05:51:24;22.20;;;17.63;;
47615;SDS011;69146;52.266;7.000;2023-04-24T05:54:09;20.88;;;17.50;;
47615;SDS011;69146;52.266;7.000;2023-04-24T05:56:58;20.80;;;17.35;;
47615;SDS011;69146;52.266;7.000;2023-04-24T05:59:43;23.20;;;18.30;;
47615;SDS011;69146;52.266;7.000;2023-04-24T06:02:31;23.63;;;17.92;;
47615;SDS011;69146;52.266;7.000;2023-04-24T06:08:03;22.20;;;16.88;;
47615;SDS011;69146;52.266;7.000;2023-04-24T06:10:48;22.63;;;16.98;;
47615;SDS011;69146;52.266;7.000;2023-04-24T06:13:34;22.52;;;16.70;;
47615;SDS011;69146;52.266;7.000;2023-04-24T06:16:18;24.67;;;17.45;;
47615;SDS011;69146;52.266;7.000;2023-04-24T06:19:03;21.20;;;17.10;;
47615;SDS011;69146;52.266;7.000;2023-04-24T06:21:50;22.83;;;18.27;;
47615;SDS011;69146;52.266;7.000;2023-04-24T06:24:35;19.67;;;16.60;;
47615;SDS011;69146;52.266;7.000;2023-04-24T06:27:26;19.60;;;16.83;;
47615;SDS011;69146;52.266;7.000;2023-04-24T06:30:12;23.92;;;17.35;;
47615;SDS011;69146;52.266;7.000;2023-04-24T06:35:42;21.27;;;16.50;;
47615;SDS011;69146;52.266;7.000;2023-04-24T06:38:28;21.25;;;15.88;;
47615;SDS011;69146;52.266;7.000;2023-04-24T06:41:13;17.90;;;14.55;;
47615;SDS011;69146;52.266;7.000;2023-04-24T06:43:58;17.88;;;14.32;;
47615;SDS011;69146;52.266;7.000;2023-04-24T06:46:43;19.23;;;14.82;;
47615;SDS011;69146;52.266;7.000;2023-04-24T06:49:28;19.63;;;14.70;;
47615;SDS011;69146;52.266;7.000;2023-04-24T06:52:14;17.10;;;13.85;;
47615;SDS011;69146;52.266;7.000;2023-04-24T06:55:04;17.90;;;13.80;;
47615;SDS011;69146;52.266;7.000;2023-04-24T06:57:52;20.02;;;13.85;;
47615;SDS011;69146;52.266;7.000;2023-04-24T07:00:37;15.65;;;12.55;;
47615;SDS011;69146;52.266;7.000;2023-04-24T07:03:22;16.13;;;12.47;;
47615;SDS011;69146;52.266;7.000;2023-04-24T07:06:07;15.70;;;13.65;;
47615;SDS011;69146;52.266;7.000;2023-04-24T07:08:54;15.00;;;12.65;;
47615;SDS011;69146;52.266;7.000;2023-04-24T07:14:26;13.70;;;10.65;;
47615;SDS011;69146;52.266;7.000;2023-04-24T07:17:10;17.45;;;11.63;;
47615;SDS011;69146;52.266;7.000;2023-04-24T07:19:57;15.73;;;12.10;;
47615;SDS011;69146;52.266;7.000;2023-04-24T07:22:45;13.63;;;11.23;;
47615;SDS011;69146;52.266;7.000;2023-04-24T07:25:33;14.27;;;11.07;;
47615;SDS011;69146;52.266;7.000;2023-04-24T07:28:32;14.82;;;11.18;;
47615;SDS011;69146;52.266;7.000;2023-04-24T07:31:20;16.23;;;10.73;;
47615;SDS011;69146;52.266;7.000;2023-04-24T07:34:05;16.17;;;11.38;;
47615;SDS011;69146;52.266;7.000;2023-04-24T07:36:49;13.68;;;10.75;;
47615;SDS011;69146;52.266;7.000;2023-04-24T07:39:35;13.35;;;11.60;;
47615;SDS011;69146;52.266;7.000;2023-04-24T07:42:20;15.35;;;11.93;;
47615;SDS011;69146;52.266;7.000;2023-04-24T07:45:06;16.87;;;11.63;;
47615;SDS011;69146;52.266;7.000;2023-04-24T07:47:52;14.35;;;11.07;;
47615;SDS011;69146;52.266;7.000;2023-04-24T07:50:37;14.70;;;11.77;;
47615;SDS011;69146;52.266;7.000;2023-04-24T07:53:21;16.40;;;12.93;;
47615;SDS011;69146;52.266;7.000;2023-04-24T07:56:07;15.85;;;12.02;;
47615;SDS011;69146;52.266;7.000;2023-04-24T07:58:53;14.90;;;12.55;;
47615;SDS011;69146;52.266;7.000;2023-04-24T08:01:39;16.80;;;13.25;;
47615;SDS011;69146;52.266;7.000;2023-04-24T08:04:25;15.93;;;13.23;;
47615;SDS011;69146;52.266;7.000;2023-04-24T08:07:13;16.73;;;13.45;;
47615;SDS011;69146;52.266;7.000;2023-04-24T08:09:58;13.20;;;10.77;;
47615;SDS011;69146;52.266;7.000;2023-04-24T08:15:28;15.95;;;12.40;;
47615;SDS011;69146;52.266;7.000;2023-04-24T08:18:14;13.85;;;10.55;;
47615;SDS011;69146;52.266;7.000;2023-04-24T08:20:59;12.68;;;10.57;;
47615;SDS011;69146;52.266;7.000;2023-04-24T08:23:45;16.48;;;11.55;;
47615;SDS011;69146;52.266;7.000;2023-04-24T08:26:30;14.90;;;10.98;;
47615;SDS011;69146;52.266;7.000;2023-04-24T08:29:18;16.40;;;11.10;;
47615;SDS011;69146;52.266;7.000;2023-04-24T08:32:03;15.55;;;11.63;;
47615;SDS011;69146;52.266;7.000;2023-04-24T08:34:49;13.93;;;10.35;;
47615;SDS011;69146;52.266;7.000;2023-04-24T08:37:36;12.10;;;9.82;;
47615;SDS011;69146;52.266;7.000;2023-04-24T08:40:26;12.38;;;10.13;;
47615;SDS011;69146;52.266;7.000;2023-04-24T08:43:15;13.45;;;9.90;;
47615;SDS011;69146;52.266;7.000;2023-04-24T08:46:00;13.65;;;9.93;;
47615;SDS011;69146;52.266;7.000;2023-04-24T08:48:45;12.43;;;9.15;;
47615;SDS011;69146;52.266;7.000;2023-04-24T08:54:17;12.63;;;9.40;;
47615;SDS011;69146;52.266;7.000;2023-04-24T08:57:03;10.57;;;8.73;;
47615;SDS011;69146;52.266;7.000;2023-04-24T09:02:33;10.63;;;7.75;;
47615;SDS011;69146;52.266;7.000;2023-04-24T09:05:24;10.15;;;8.25;;
47615;SDS011;69146;52.266;7.000;2023-04-24T09:08:12;11.38;;;8.32;;
47615;SDS011;69146;52.266;7.000;2023-04-24T09:10:58;11.63;;;8.48;;
47615;SDS011;69146;52.266;7.000;2023-04-24T09:13:46;10.70;;;8.23;;
47615;SDS011;69146;52.266;7.000;2023-04-24T09:16:32;9.93;;;7.95;;
47615;SDS011;69146;52.266;7.000;2023-04-24T09:19:18;10.38;;;8.40;;
47615;SDS011;69146;52.266;7.000;2023-04-24T09:22:05;10.30;;;7.28;;
47615;SDS011;69146;52.266;7.000;2023-04-24T09:25:00;8.90;;;6.68;;
47615;SDS011;69146;52.266;7.000;2023-04-24T09:27:47;9.40;;;6.93;;
47615;SDS011;69146;52.266;7.000;2023-04-24T09:30:32;9.07;;;7.15;;
47615;SDS011;69146;52.266;7.000;2023-04-24T09:33:17;7.82;;;5.68;;
47615;SDS011;69146;52.266;7.000;2023-04-24T09:36:04;8.02;;;5.82;;
47615;SDS011;69146;52.266;7.000;2023-04-24T09:38:50;8.93;;;5.40;;
47615;SDS011;69146;52.266;7.000;2023-04-24T09:41:48;4.82;;;4.00;;
47615;SDS011;69146;52.266;7.000;2023-04-24T09:44:34;6.00;;;4.63;;
47615;SDS011;69146;52.266;7.000;2023-04-24T09:47:20;7.82;;;6.05;;
47615;SDS011;69146;52.266;7.000;2023-04-24T09:50:09;13.95;;;8.57;;
47615;SDS011;69146;52.266;7.000;2023-04-24T09:53:01;19.98;;;12.00;;
47615;SDS011;69146;52.266;7.000;2023-04-24T09:55:47;17.35;;;12.38;;
47615;SDS011;69146;52.266;7.000;2023-04-24T09:58:36;18.17;;;13.52;;
47615;SDS011;69146;52.266;7.000;2023-04-24T10:01:29;20.15;;;12.82;;
47615;SDS011;69146;52.266;7.000;2023-04-24T10:04:15;19.65;;;13.63;;
47615;SDS011;69146;52.266;7.000;2023-04-24T10:07:02;19.40;;;12.45;;
47615;SDS011;69146;52.266;7.000;2023-04-24T10:09:50;25.60;;;14.00;;
47615;SDS011;69146;52.266;7.000;2023-04-24T10:12:35;20.67;;;13.45;;
47615;SDS011;69146;52.266;7.000;2023-04-24T10:15:22;20.05;;;14.02;;
47615;SDS011;69146;52.266;7.000;2023-04-24T10:18:08;20.42;;;13.80;;
47615;SDS011;69146;52.266;7.000;2023-04-24T10:20:54;23.95;;;13.45;;
47615;SDS011;69146;52.266;7.000;2023-04-24T10:23:40;18.25;;;13.32;;
47615;SDS011;69146;52.266;7.000;2023-04-24T10:26:26;20.38;;;12.57;;
47615;SDS011;69146;52.266;7.000;2023-04-24T10:29:12;20.17;;;12.02;;
47615;SDS011;69146;52.266;7.000;2023-04-24T10:32:00;17.98;;;11.57;;
47615;SDS011;69146;52.266;7.000;2023-04-24T10:34:46;21.90;;;11.07;;
47615;SDS011;69146;52.266;7.000;2023-04-24T10:37:34;18.05;;;11.82;;
47615;SDS011;69146;52.266;7.000;2023-04-24T10:40:25;20.17;;;12.63;;
47615;SDS011;69146;52.266;7.000;2023-04-24T10:43:15;20.80;;;12.32;;
47615;SDS011;69146;52.266;7.000;2023-04-24T10:46:03;19.05;;;12.93;;
47615;SDS011;69146;52.266;7.000;2023-04-24T10:48:53;19.80;;;12.65;;
47615;SDS011;69146;52.266;7.000;2023-04-24T10:51:44;22.30;;;13.15;;
47615;SDS011;69146;52.266;7.000;2023-04-24T10:54:34;19.77;;;12.27;;
47615;SDS011;69146;52.266;7.000;2023-04-24T10:57:27;20.58;;;12.57;;
47615;SDS011;69146;52.266;7.000;2023-04-24T11:00:21;18.33;;;11.33;;
47615;SDS011;69146;52.266;7.000;2023-04-24T11:03:22;19.30;;;11.57;;
47615;SDS011;69146;52.266;7.000;2023-04-24T11:06:10;18.83;;;10.50;;
47615;SDS011;69146;52.266;7.000;2023-04-24T11:09:01;14.32;;;7.75;;
47615;SDS011;69146;52.266;7.000;2023-04-24T11:11:49;14.75;;;7.68;;
47615;SDS011;69146;52.266;7.000;2023-04-24T11:17:44;14.85;;;5.72;;
47615;SDS011;69146;52.266;7.000;2023-04-24T11:20:30;10.70;;;5.30;;
47615;SDS011;69146;52.266;7.000;2023-04-24T11:23:16;18.00;;;5.80;;
47615;SDS011;69146;52.266;7.000;2023-04-24T11:26:12;12.82;;;4.80;;
47615;SDS011;69146;52.266;7.000;2023-04-24T11:29:06;11.93;;;4.75;;
47615;SDS011;69146;52.266;7.000;2023-04-24T11:31:51;12.63;;;5.75;;
47615;SDS011;69146;52.266;7.000;2023-04-24T11:34:36;14.27;;;5.53;;
47615;SDS011;69146;52.266;7.000;2023-04-24T11:37:23;9.48;;;4.28;;
47615;SDS011;69146;52.266;7.000;2023-04-24T11:40:12;12.30;;;5.30;;
47615;SDS011;69146;52.266;7.000;2023-04-24T11:43:01;13.75;;;4.90;;
47615;SDS011;69146;52.266;7.000;2023-04-24T11:45:49;14.68;;;5.05;;
47615;SDS011;69146;52.266;7.000;2023-04-24T11:48:34;13.07;;;4.30;;
47615;SDS011;69146;52.266;7.000;2023-04-24T11:51:25;15.52;;;4.85;;
47615;SDS011;69146;52.266;7.000;2023-04-24T11:54:13;16.73;;;5.68;;
47615;SDS011;69146;52.266;7.000;2023-04-24T11:56:59;14.48;;;5.57;;
47615;SDS011;69146;52.266;7.000;2023-04-24T11:59:48;13.18;;;4.90;;
47615;SDS011;69146;52.266;7.000;2023-04-24T12:02:33;15.68;;;5.10;;
47615;SDS011;69146;52.266;7.000;2023-04-24T12:05:21;12.05;;;4.03;;
47615;SDS011;69146;52.266;7.000;2023-04-24T12:08:07;9.18;;;3.58;;
47615;SDS011;69146;52.266;7.000;2023-04-24T12:10:52;10.97;;;3.53;;
47615;SDS011;69146;52.266;7.000;2023-04-24T12:13:38;11.85;;;3.85;;
47615;SDS011;69146;52.266;7.000;2023-04-24T12:16:26;14.02;;;3.83;;
47615;SDS011;69146;52.266;7.000;2023-04-24T12:19:11;8.75;;;3.65;;
47615;SDS011;69146;52.266;7.000;2023-04-24T12:22:05;10.35;;;3.55;;
47615;SDS011;69146;52.266;7.000;2023-04-24T12:25:00;9.57;;;3.35;;
47615;SDS011;69146;52.266;7.000;2023-04-24T12:27:46;14.30;;;3.63;;
47615;SDS011;69146;52.266;7.000;2023-04-24T12:30:39;9.35;;;3.90;;
47615;SDS011;69146;52.266;7.000;2023-04-24T12:33:26;11.02;;;4.10;;
47615;SDS011;69146;52.266;7.000;2023-04-24T12:36:11;11.48;;;4.00;;
47615;SDS011;69146;52.266;7.000;2023-04-24T12:38:56;6.85;;;3.17;;
47615;SDS011;69146;52.266;7.000;2023-04-24T12:41:49;12.07;;;3.22;;
47615;SDS011;69146;52.266;7.000;2023-04-24T12:44:38;6.35;;;3.20;;
47615;SDS011;69146;52.266;7.000;2023-04-24T12:47:25;8.30;;;2.92;;
47615;SDS011;69146;52.266;7.000;2023-04-24T12:50:11;7.97;;;3.45;;
47615;SDS011;69146;52.266;7.000;2023-04-24T12:52:59;11.60;;;3.40;;
47615;SDS011;69146;52.266;7.000;2023-04-24T12:55:44;9.45;;;3.13;;
47615;SDS011;69146;52.266;7.000;2023-04-24T12:58:30;11.18;;;3.38;;
47615;SDS011;69146;52.266;7.000;2023-04-24T13:01:16;8.43;;;3.33;;
47615;SDS011;69146;52.266;7.000;2023-04-24T13:04:02;10.47;;;3.43;;
47615;SDS011;69146;52.266;7.000;2023-04-24T13:06:47;8.20;;;3.67;;
47615;SDS011;69146;52.266;7.000;2023-04-24T13:09:34;6.70;;;3.03;;
47615;SDS011;69146;52.266;7.000;2023-04-24T13:12:19;9.90;;;3.47;;
47615;SDS011;69146;52.266;7.000;2023-04-24T13:15:07;11.27;;;3.47;;
47615;SDS011;69146;52.266;7.000;2023-04-24T13:17:52;9.70;;;3.30;;
47615;SDS011;69146;52.266;7.000;2023-04-24T13:20:39;8.77;;;3.35;;
47615;SDS011;69146;52.266;7.000;2023-04-24T13:23:28;10.77;;;3.42;;
47615;SDS011;69146;52.266;7.000;2023-04-24T13:26:19;6.32;;;2.45;;
47615;SDS011;69146;52.266;7.000;2023-04-24T13:29:03;8.60;;;2.67;;
47615;SDS011;69146;52.266;7.000;2023-04-24T13:31:52;6.85;;;2.50;;
47615;SDS011;69146;52.266;7.000;2023-04-24T13:34:40;5.97;;;2.92;;
47615;SDS011;69146;52.266;7.000;2023-04-24T13:37:26;5.78;;;2.10;;
47615;SDS011;69146;52.266;7.000;2023-04-24T13:40:11;6.03;;;2.00;;
47615;SDS011;69146;52.266;7.000;2023-04-24T13:42:56;4.00;;;1.83;;
47615;SDS011;69146;52.266;7.000;2023-04-24T13:45:41;7.57;;;2.00;;
47615;SDS011;69146;52.266;7.000;2023-04-24T13:48:26;7.43;;;2.30;;
47615;SDS011;69146;52.266;7.000;2023-04-24T13:51:11;6.97;;;2.30;;
47615;SDS011;69146;52.266;7.000;2023-04-24T13:53:57;5.22;;;1.88;;
47615;SDS011;69146;52.266;7.000;2023-04-24T13:56:43;4.68;;;2.00;;
47615;SDS011;69146;52.266;7.000;2023-04-24T13:59:28;2.42;;;1.55;;
47615;SDS011;69146;52.266;7.000;2023-04-24T14:02:13;5.78;;;1.55;;
47615;SDS011;69146;52.266;7.000;2023-04-24T14:04:58;4.57;;;1.30;;
47615;SDS011;69146;52.266;7.000;2023-04-24T14:07:43;3.30;;;1.23;;
47615;SDS011;69146;52.266;7.000;2023-04-24T14:10:29;4.07;;;0.77;;
47615;SDS011;69146;52.266;7.000;2023-04-24T14:13:14;3.85;;;1.05;;
47615;SDS011;69146;52.266;7.000;2023-04-24T14:15:59;6.80;;;0.68;;
47615;SDS011;69146;52.266;7.000;2023-04-24T14:18:46;3.78;;;0.90;;
47615;SDS011;69146;52.266;7.000;2023-04-24T14:21:31;3.05;;;0.80;;
47615;SDS011;69146;52.266;7.000;2023-04-24T14:24:16;2.63;;;0.75;;
47615;SDS011;69146;52.266;7.000;2023-04-24T14:27:03;3.53;;;0.80;;
47615;SDS011;69146;52.266;7.000;2023-04-24T14:29:48;1.90;;;0.73;;
47615;SDS011;69146;52.266;7.000;2023-04-24T14:32:33;2.75;;;0.60;;
47615;SDS011;69146;52.266;7.000;2023-04-24T14:35:18;2.58;;;0.70;;
47615;SDS011;69146;52.266;7.000;2023-04-24T14:40:48;3.47;;;0.80;;
47615;SDS011;69146;52.266;7.000;2023-04-24T14:43:38;2.72;;;0.60;;
47615;SDS011;69146;52.266;7.000;2023-04-24T14:46:23;1.65;;;0.50;;
47615;SDS011;69146;52.266;7.000;2023-04-24T14:49:08;3.28;;;1.17;;
47615;SDS011;69146;52.266;7.000;2023-04-24T14:51:53;4.25;;;1.00;;
47615;SDS011;69146;52.266;7.000;2023-04-24T14:54:38;2.95;;;0.80;;
47615;SDS011;69146;52.266;7.000;2023-04-24T14:57:23;4.20;;;1.05;;
47615;SDS011;69146;52.266;7.000;2023-04-24T15:00:10;4.90;;;1.17;;
47615;SDS011;69146;52.266;7.000;2023-04-24T15:02:56;4.50;;;1.10;;
47615;SDS011;69146;52.266;7.000;2023-04-24T15:05:40;6.82;;;1.33;;
47615;SDS011;69146;52.266;7.000;2023-04-24T15:08:25;2.47;;;1.05;;
47615;SDS011;69146;52.266;7.000;2023-04-24T15:11:10;5.28;;;1.27;;
47615;SDS011;69146;52.266;7.000;2023-04-24T15:13:55;5.03;;;1.20;;
47615;SDS011;69146;52.266;7.000;2023-04-24T15:16:42;7.68;;;1.70;;
47615;SDS011;69146;52.266;7.000;2023-04-24T15:19:27;5.15;;;1.60;;
47615;SDS011;69146;52.266;7.000;2023-04-24T15:22:13;7.72;;;2.40;;
47615;SDS011;69146;52.266;7.000;2023-04-24T15:24:58;8.80;;;2.60;;
47615;SDS011;69146;52.266;7.000;2023-04-24T15:27:43;6.50;;;2.15;;
47615;SDS011;69146;52.266;7.000;2023-04-24T15:30:29;7.90;;;2.50;;
47615;SDS011;69146;52.266;7.000;2023-04-24T15:33:16;5.70;;;2.58;;
47615;SDS011;69146;52.266;7.000;2023-04-24T15:36:01;8.93;;;2.85;;
47615;SDS011;69146;52.266;7.000;2023-04-24T15:38:46;8.55;;;2.70;;
47615;SDS011;69146;52.266;7.000;2023-04-24T15:41:31;6.07;;;2.45;;
47615;SDS011;69146;52.266;7.000;2023-04-24T15:44:16;11.43;;;2.88;;
47615;SDS011;69146;52.266;7.000;2023-04-24T15:47:01;8.85;;;2.83;;
47615;SDS011;69146;52.266;7.000;2023-04-24T15:49:48;11.13;;;2.25;;
47615;SDS011;69146;52.266;7.000;2023-04-24T15:52:32;8.07;;;2.40;;
47615;SDS011;69146;52.266;7.000;2023-04-24T15:55:17;8.55;;;2.60;;
47615;SDS011;69146;52.266;7.000;2023-04-24T15:58:02;10.37;;;3.00;;
47615;SDS011;69146;52.266;7.000;2023-04-24T16:00:47;10.13;;;2.80;;
47615;SDS011;69146;52.266;7.000;2023-04-24T16:03:42;8.95;;;2.88;;
47615;SDS011;69146;52.266;7.000;2023-04-24T16:06:29;12.57;;;2.90;;
47615;SDS011;69146;52.266;7.000;2023-04-24T16:09:15;11.52;;;3.10;;
47615;SDS011;69146;52.266;7.000;2023-04-24T16:11:59;9.23;;;2.75;;
47615;SDS011;69146;52.266;7.000;2023-04-24T16:14:45;8.73;;;2.40;;
47615;SDS011;69146;52.266;7.000;2023-04-24T16:17:30;5.15;;;2.17;;
47615;SDS011;69146;52.266;7.000;2023-04-24T16:20:15;8.75;;;2.47;;
47615;SDS011;69146;52.266;7.000;2023-04-24T16:23:01;10.83;;;2.63;;
47615;SDS011;69146;52.266;7.000;2023-04-24T16:25:46;6.28;;;2.00;;
47615;SDS011;69146;52.266;7.000;2023-04-24T16:28:31;7.03;;;2.28;;
47615;SDS011;69146;52.266;7.000;2023-04-24T16:31:16;7.10;;;2.35;;
47615;SDS011;69146;52.266;7.000;2023-04-24T16:34:01;6.53;;;2.08;;
47615;SDS011;69146;52.266;7.000;2023-04-24T16:36:45;10.20;;;2.13;;
47615;SDS011;69146;52.266;7.000;2023-04-24T16:39:35;6.82;;;1.98;;
47615;SDS011;69146;52.266;7.000;2023-04-24T16:42:29;7.03;;;1.90;;
47615;SDS011;69146;52.266;7.000;2023-04-24T16:45:14;6.10;;;2.13;;
47615;SDS011;69146;52.266;7.000;2023-04-24T16:48:00;7.15;;;2.50;;
47615;SDS011;69146;52.266;7.000;2023-04-24T16:50:45;6.88;;;2.00;;